sensor_id;sensor_type;location;lat;lon;timestamp;P1;durP1;ratioP1;P2;durP2;ratioP2
40981;SDS011;26708;50.304;19.028;2022-07-23T00:00:02;19.52;;;11.30;;
40981;SDS011;26708;50.304;19.028;2022-07-23T00:03:06;16.13;;;10.52;;
40981;SDS011;26708;50.304;19.028;2022-07-23T00:06:07;16.13;;;9.98;;
40981;SDS011;26708;50.304;19.028;2022-07-23T00:09:08;17.10;;;10.38;;
40981;SDS011;26708;50.304;19.028;2022-07-23T00:12:09;16.23;;;10.63;;
40981;SDS011;26708;50.304;19.028;2022-07-23T00:15:09;17.38;;;10.43;;
40981;SDS011;26708;50.304;19.028;2022-07-23T00:18:10;15.90;;;10.93;;
40981;SDS011;26708;50.304;19.028;2022-07-23T00:21:11;19.15;;;10.90;;
40981;SDS011;26708;50.304;19.028;2022-07-23T00:24:12;14.43;;;9.70;;
40981;SDS011;26708;50.304;19.028;2022-07-23T00:27:12;16.83;;;10.32;;
40981;SDS011;26708;50.304;19.028;2022-07-23T00:30:13;15.55;;;10.02;;
40981;SDS011;26708;50.304;19.028;2022-07-23T00:33:14;15.90;;;9.57;;
40981;SDS011;26708;50.304;19.028;2022-07-23T00:36:15;14.85;;;10.38;;
40981;SDS011;26708;50.304;19.028;2022-07-23T00:39:16;18.23;;;10.55;;
40981;SDS011;26708;50.304;19.028;2022-07-23T00:42:17;14.32;;;9.32;;
40981;SDS011;26708;50.304;19.028;2022-07-23T00:45:18;15.82;;;9.65;;
40981;SDS011;26708;50.304;19.028;2022-07-23T00:48:20;18.13;;;10.00;;
40981;SDS011;26708;50.304;19.028;2022-07-23T00:51:20;15.30;;;9.05;;
40981;SDS011;26708;50.304;19.028;2022-07-23T00:54:23;16.75;;;9.98;;
40981;SDS011;26708;50.304;19.028;2022-07-23T00:57:25;14.90;;;9.57;;
40981;SDS011;26708;50.304;19.028;2022-07-23T01:00:26;17.25;;;9.30;;
40981;SDS011;26708;50.304;19.028;2022-07-23T01:03:27;15.75;;;9.82;;
40981;SDS011;26708;50.304;19.028;2022-07-23T01:06:28;15.93;;;9.48;;
40981;SDS011;26708;50.304;19.028;2022-07-23T01:09:29;15.20;;;9.73;;
40981;SDS011;26708;50.304;19.028;2022-07-23T01:12:31;13.02;;;9.35;;
40981;SDS011;26708;50.304;19.028;2022-07-23T01:15:33;17.77;;;9.90;;
40981;SDS011;26708;50.304;19.028;2022-07-23T01:18:35;15.63;;;10.25;;
40981;SDS011;26708;50.304;19.028;2022-07-23T01:21:37;17.95;;;9.85;;
40981;SDS011;26708;50.304;19.028;2022-07-23T01:24:39;13.43;;;9.65;;
40981;SDS011;26708;50.304;19.028;2022-07-23T01:27:41;20.15;;;10.00;;
40981;SDS011;26708;50.304;19.028;2022-07-23T01:30:42;20.27;;;10.43;;
40981;SDS011;26708;50.304;19.028;2022-07-23T01:33:43;14.27;;;9.88;;
40981;SDS011;26708;50.304;19.028;2022-07-23T01:36:44;13.30;;;9.63;;
40981;SDS011;26708;50.304;19.028;2022-07-23T01:39:45;15.85;;;10.25;;
40981;SDS011;26708;50.304;19.028;2022-07-23T01:42:47;20.38;;;10.05;;
40981;SDS011;26708;50.304;19.028;2022-07-23T01:45:48;16.98;;;9.95;;
40981;SDS011;26708;50.304;19.028;2022-07-23T01:48:49;16.52;;;10.32;;
40981;SDS011;26708;50.304;19.028;2022-07-23T01:52:08;17.08;;;10.10;;
40981;SDS011;26708;50.304;19.028;2022-07-23T01:55:23;16.80;;;10.02;;
40981;SDS011;26708;50.304;19.028;2022-07-23T01:58:24;15.45;;;9.88;;
40981;SDS011;26708;50.304;19.028;2022-07-23T02:01:26;15.85;;;10.10;;
40981;SDS011;26708;50.304;19.028;2022-07-23T02:04:26;19.10;;;9.45;;
40981;SDS011;26708;50.304;19.028;2022-07-23T02:07:27;17.50;;;10.23;;
40981;SDS011;26708;50.304;19.028;2022-07-23T02:10:28;16.40;;;9.68;;
40981;SDS011;26708;50.304;19.028;2022-07-23T02:13:29;17.42;;;10.18;;
40981;SDS011;26708;50.304;19.028;2022-07-23T02:16:29;16.63;;;10.05;;
40981;SDS011;26708;50.304;19.028;2022-07-23T02:19:36;16.50;;;9.75;;
40981;SDS011;26708;50.304;19.028;2022-07-23T02:22:37;19.30;;;9.85;;
40981;SDS011;26708;50.304;19.028;2022-07-23T02:25:38;18.48;;;10.45;;
40981;SDS011;26708;50.304;19.028;2022-07-23T02:28:39;15.82;;;10.15;;
40981;SDS011;26708;50.304;19.028;2022-07-23T02:31:41;15.95;;;10.00;;
40981;SDS011;26708;50.304;19.028;2022-07-23T02:34:42;15.70;;;10.20;;
40981;SDS011;26708;50.304;19.028;2022-07-23T02:37:43;15.00;;;10.38;;
40981;SDS011;26708;50.304;19.028;2022-07-23T02:40:44;19.45;;;10.60;;
40981;SDS011;26708;50.304;19.028;2022-07-23T02:43:45;18.42;;;9.80;;
40981;SDS011;26708;50.304;19.028;2022-07-23T02:46:47;19.23;;;11.20;;
40981;SDS011;26708;50.304;19.028;2022-07-23T02:49:48;23.70;;;12.27;;
40981;SDS011;26708;50.304;19.028;2022-07-23T02:52:49;24.65;;;12.18;;
40981;SDS011;26708;50.304;19.028;2022-07-23T02:55:50;30.45;;;12.80;;
40981;SDS011;26708;50.304;19.028;2022-07-23T02:58:51;23.55;;;12.38;;
40981;SDS011;26708;50.304;19.028;2022-07-23T03:01:52;26.48;;;12.63;;
40981;SDS011;26708;50.304;19.028;2022-07-23T03:04:53;22.58;;;13.13;;
40981;SDS011;26708;50.304;19.028;2022-07-23T03:07:54;20.55;;;11.40;;
40981;SDS011;26708;50.304;19.028;2022-07-23T03:10:55;18.45;;;10.93;;
40981;SDS011;26708;50.304;19.028;2022-07-23T03:13:56;18.45;;;10.90;;
40981;SDS011;26708;50.304;19.028;2022-07-23T03:16:57;18.85;;;10.93;;
40981;SDS011;26708;50.304;19.028;2022-07-23T03:20:00;24.38;;;14.48;;
40981;SDS011;26708;50.304;19.028;2022-07-23T03:23:00;20.05;;;11.32;;
40981;SDS011;26708;50.304;19.028;2022-07-23T03:26:03;22.58;;;11.60;;
40981;SDS011;26708;50.304;19.028;2022-07-23T03:29:04;20.65;;;11.63;;
40981;SDS011;26708;50.304;19.028;2022-07-23T03:32:05;19.10;;;11.73;;
40981;SDS011;26708;50.304;19.028;2022-07-23T03:35:06;15.68;;;10.82;;
40981;SDS011;26708;50.304;19.028;2022-07-23T03:38:09;24.15;;;13.13;;
40981;SDS011;26708;50.304;19.028;2022-07-23T03:41:10;20.80;;;11.82;;
40981;SDS011;26708;50.304;19.028;2022-07-23T03:44:11;22.00;;;11.60;;
40981;SDS011;26708;50.304;19.028;2022-07-23T03:47:11;18.58;;;11.73;;
40981;SDS011;26708;50.304;19.028;2022-07-23T03:50:12;23.38;;;12.77;;
40981;SDS011;26708;50.304;19.028;2022-07-23T03:53:13;21.23;;;12.68;;
40981;SDS011;26708;50.304;19.028;2022-07-23T03:56:14;17.50;;;11.48;;
40981;SDS011;26708;50.304;19.028;2022-07-23T03:59:14;19.38;;;11.88;;
40981;SDS011;26708;50.304;19.028;2022-07-23T04:02:15;18.25;;;11.25;;
40981;SDS011;26708;50.304;19.028;2022-07-23T04:05:16;15.52;;;10.65;;
40981;SDS011;26708;50.304;19.028;2022-07-23T04:08:18;17.95;;;12.20;;
40981;SDS011;26708;50.304;19.028;2022-07-23T04:11:24;23.73;;;13.50;;
40981;SDS011;26708;50.304;19.028;2022-07-23T04:14:25;19.33;;;12.88;;
40981;SDS011;26708;50.304;19.028;2022-07-23T04:17:26;27.00;;;12.00;;
40981;SDS011;26708;50.304;19.028;2022-07-23T04:20:27;21.00;;;12.23;;
40981;SDS011;26708;50.304;19.028;2022-07-23T04:23:32;24.83;;;12.02;;
40981;SDS011;26708;50.304;19.028;2022-07-23T04:26:33;21.33;;;12.77;;
40981;SDS011;26708;50.304;19.028;2022-07-23T04:29:34;27.08;;;12.05;;
40981;SDS011;26708;50.304;19.028;2022-07-23T04:32:35;20.60;;;13.35;;
40981;SDS011;26708;50.304;19.028;2022-07-23T04:35:38;23.50;;;12.10;;
40981;SDS011;26708;50.304;19.028;2022-07-23T04:38:48;19.10;;;12.32;;
40981;SDS011;26708;50.304;19.028;2022-07-23T04:41:49;20.77;;;12.95;;
40981;SDS011;26708;50.304;19.028;2022-07-23T04:44:50;20.75;;;12.20;;
40981;SDS011;26708;50.304;19.028;2022-07-23T04:47:51;25.15;;;12.82;;
40981;SDS011;26708;50.304;19.028;2022-07-23T04:50:52;16.38;;;11.75;;
40981;SDS011;26708;50.304;19.028;2022-07-23T04:53:56;21.10;;;11.98;;
40981;SDS011;26708;50.304;19.028;2022-07-23T04:56:57;18.63;;;11.18;;
40981;SDS011;26708;50.304;19.028;2022-07-23T04:59:58;19.05;;;11.07;;
40981;SDS011;26708;50.304;19.028;2022-07-23T05:02:59;19.55;;;11.35;;
40981;SDS011;26708;50.304;19.028;2022-07-23T05:06:00;17.75;;;12.40;;
40981;SDS011;26708;50.304;19.028;2022-07-23T05:09:01;18.00;;;12.00;;
40981;SDS011;26708;50.304;19.028;2022-07-23T05:12:03;16.48;;;11.43;;
40981;SDS011;26708;50.304;19.028;2022-07-23T05:15:06;18.08;;;11.57;;
40981;SDS011;26708;50.304;19.028;2022-07-23T05:18:08;19.15;;;11.57;;
40981;SDS011;26708;50.304;19.028;2022-07-23T05:21:08;18.52;;;10.80;;
40981;SDS011;26708;50.304;19.028;2022-07-23T05:24:09;19.02;;;12.73;;
40981;SDS011;26708;50.304;19.028;2022-07-23T05:27:10;20.17;;;13.43;;
40981;SDS011;26708;50.304;19.028;2022-07-23T05:30:11;20.30;;;14.30;;
40981;SDS011;26708;50.304;19.028;2022-07-23T05:33:14;20.27;;;12.90;;
40981;SDS011;26708;50.304;19.028;2022-07-23T05:36:16;20.98;;;12.07;;
40981;SDS011;26708;50.304;19.028;2022-07-23T05:39:26;23.08;;;12.80;;
40981;SDS011;26708;50.304;19.028;2022-07-23T05:42:27;19.27;;;11.82;;
40981;SDS011;26708;50.304;19.028;2022-07-23T05:45:27;22.10;;;12.93;;
40981;SDS011;26708;50.304;19.028;2022-07-23T05:48:29;16.25;;;11.48;;
40981;SDS011;26708;50.304;19.028;2022-07-23T05:51:38;16.73;;;11.93;;
40981;SDS011;26708;50.304;19.028;2022-07-23T05:54:39;16.70;;;11.80;;
40981;SDS011;26708;50.304;19.028;2022-07-23T05:57:41;17.10;;;11.60;;
40981;SDS011;26708;50.304;19.028;2022-07-23T06:00:42;22.02;;;11.98;;
40981;SDS011;26708;50.304;19.028;2022-07-23T06:03:42;18.63;;;10.75;;
40981;SDS011;26708;50.304;19.028;2022-07-23T06:06:43;18.02;;;11.20;;
40981;SDS011;26708;50.304;19.028;2022-07-23T06:09:45;18.85;;;11.43;;
40981;SDS011;26708;50.304;19.028;2022-07-23T06:12:47;21.98;;;12.55;;
40981;SDS011;26708;50.304;19.028;2022-07-23T06:15:48;19.15;;;12.77;;
40981;SDS011;26708;50.304;19.028;2022-07-23T06:18:48;20.05;;;12.15;;
40981;SDS011;26708;50.304;19.028;2022-07-23T06:21:49;25.25;;;12.90;;
40981;SDS011;26708;50.304;19.028;2022-07-23T06:24:51;21.13;;;11.88;;
40981;SDS011;26708;50.304;19.028;2022-07-23T06:27:54;24.00;;;12.13;;
40981;SDS011;26708;50.304;19.028;2022-07-23T06:30:54;23.05;;;12.52;;
40981;SDS011;26708;50.304;19.028;2022-07-23T06:33:57;21.45;;;12.82;;
40981;SDS011;26708;50.304;19.028;2022-07-23T06:36:58;23.48;;;12.10;;
40981;SDS011;26708;50.304;19.028;2022-07-23T06:40:00;26.08;;;13.23;;
40981;SDS011;26708;50.304;19.028;2022-07-23T06:43:01;19.35;;;11.55;;
40981;SDS011;26708;50.304;19.028;2022-07-23T06:46:02;16.83;;;11.18;;
40981;SDS011;26708;50.304;19.028;2022-07-23T06:49:03;16.10;;;11.10;;
40981;SDS011;26708;50.304;19.028;2022-07-23T06:52:04;22.25;;;11.35;;
40981;SDS011;26708;50.304;19.028;2022-07-23T06:55:07;24.77;;;11.65;;
40981;SDS011;26708;50.304;19.028;2022-07-23T06:58:08;18.50;;;10.85;;
40981;SDS011;26708;50.304;19.028;2022-07-23T07:01:11;16.38;;;11.25;;
40981;SDS011;26708;50.304;19.028;2022-07-23T07:04:12;20.20;;;10.90;;
40981;SDS011;26708;50.304;19.028;2022-07-23T07:07:13;20.85;;;12.23;;
40981;SDS011;26708;50.304;19.028;2022-07-23T07:10:13;25.30;;;12.68;;
40981;SDS011;26708;50.304;19.028;2022-07-23T07:13:16;21.35;;;13.80;;
40981;SDS011;26708;50.304;19.028;2022-07-23T07:16:17;22.83;;;12.63;;
40981;SDS011;26708;50.304;19.028;2022-07-23T07:19:18;20.00;;;12.55;;
40981;SDS011;26708;50.304;19.028;2022-07-23T07:22:19;25.05;;;12.88;;
40981;SDS011;26708;50.304;19.028;2022-07-23T07:25:19;21.98;;;13.05;;
40981;SDS011;26708;50.304;19.028;2022-07-23T07:28:20;22.25;;;12.07;;
40981;SDS011;26708;50.304;19.028;2022-07-23T07:31:21;25.40;;;12.63;;
40981;SDS011;26708;50.304;19.028;2022-07-23T07:34:21;23.85;;;12.63;;
40981;SDS011;26708;50.304;19.028;2022-07-23T07:37:22;18.70;;;11.05;;
40981;SDS011;26708;50.304;19.028;2022-07-23T07:40:23;17.45;;;10.35;;
40981;SDS011;26708;50.304;19.028;2022-07-23T07:43:24;16.80;;;9.50;;
40981;SDS011;26708;50.304;19.028;2022-07-23T07:46:25;13.52;;;8.82;;
40981;SDS011;26708;50.304;19.028;2022-07-23T07:49:27;22.73;;;9.48;;
40981;SDS011;26708;50.304;19.028;2022-07-23T07:52:28;14.25;;;9.25;;
40981;SDS011;26708;50.304;19.028;2022-07-23T07:55:29;17.38;;;9.95;;
40981;SDS011;26708;50.304;19.028;2022-07-23T07:58:31;24.60;;;9.88;;
40981;SDS011;26708;50.304;19.028;2022-07-23T08:01:32;18.08;;;10.27;;
40981;SDS011;26708;50.304;19.028;2022-07-23T08:04:33;18.48;;;9.95;;
40981;SDS011;26708;50.304;19.028;2022-07-23T08:07:37;18.40;;;9.80;;
40981;SDS011;26708;50.304;19.028;2022-07-23T08:10:39;19.25;;;10.00;;
40981;SDS011;26708;50.304;19.028;2022-07-23T08:13:41;21.70;;;9.10;;
40981;SDS011;26708;50.304;19.028;2022-07-23T08:16:41;17.33;;;8.93;;
40981;SDS011;26708;50.304;19.028;2022-07-23T08:19:42;11.60;;;8.60;;
40981;SDS011;26708;50.304;19.028;2022-07-23T08:22:44;17.55;;;8.52;;
40981;SDS011;26708;50.304;19.028;2022-07-23T08:25:50;13.48;;;8.65;;
40981;SDS011;26708;50.304;19.028;2022-07-23T08:28:50;15.57;;;8.43;;
40981;SDS011;26708;50.304;19.028;2022-07-23T08:31:52;11.55;;;7.50;;
40981;SDS011;26708;50.304;19.028;2022-07-23T08:34:53;12.13;;;8.68;;
40981;SDS011;26708;50.304;19.028;2022-07-23T08:37:54;10.13;;;7.20;;
40981;SDS011;26708;50.304;19.028;2022-07-23T08:40:56;17.40;;;7.45;;
40981;SDS011;26708;50.304;19.028;2022-07-23T08:44:00;12.70;;;7.15;;
40981;SDS011;26708;50.304;19.028;2022-07-23T08:47:01;16.65;;;7.07;;
40981;SDS011;26708;50.304;19.028;2022-07-23T08:50:02;9.60;;;6.55;;
40981;SDS011;26708;50.304;19.028;2022-07-23T08:53:07;9.75;;;6.57;;
40981;SDS011;26708;50.304;19.028;2022-07-23T08:59:08;10.30;;;6.18;;
40981;SDS011;26708;50.304;19.028;2022-07-23T09:02:09;11.40;;;6.47;;
40981;SDS011;26708;50.304;19.028;2022-07-23T09:05:10;11.55;;;6.45;;
40981;SDS011;26708;50.304;19.028;2022-07-23T09:11:17;10.02;;;6.35;;
40981;SDS011;26708;50.304;19.028;2022-07-23T09:14:24;10.18;;;6.28;;
40981;SDS011;26708;50.304;19.028;2022-07-23T09:17:42;12.77;;;6.18;;
40981;SDS011;26708;50.304;19.028;2022-07-23T09:20:43;7.88;;;5.25;;
40981;SDS011;26708;50.304;19.028;2022-07-23T09:23:46;8.60;;;5.35;;
40981;SDS011;26708;50.304;19.028;2022-07-23T09:26:52;6.18;;;4.93;;
40981;SDS011;26708;50.304;19.028;2022-07-23T09:29:57;8.57;;;5.10;;
40981;SDS011;26708;50.304;19.028;2022-07-23T09:33:08;7.10;;;4.68;;
40981;SDS011;26708;50.304;19.028;2022-07-23T09:36:27;9.55;;;4.50;;
40981;SDS011;26708;50.304;19.028;2022-07-23T09:39:30;4.97;;;4.43;;
40981;SDS011;26708;50.304;19.028;2022-07-23T09:42:32;6.32;;;4.72;;
40981;SDS011;26708;50.304;19.028;2022-07-23T09:45:33;8.07;;;4.72;;
40981;SDS011;26708;50.304;19.028;2022-07-23T09:48:33;7.72;;;4.57;;
40981;SDS011;26708;50.304;19.028;2022-07-23T09:51:42;6.63;;;4.38;;
40981;SDS011;26708;50.304;19.028;2022-07-23T09:54:46;5.38;;;4.43;;
40981;SDS011;26708;50.304;19.028;2022-07-23T09:57:57;6.40;;;4.75;;
40981;SDS011;26708;50.304;19.028;2022-07-23T10:00:59;5.63;;;5.00;;
40981;SDS011;26708;50.304;19.028;2022-07-23T10:04:00;6.20;;;4.45;;
40981;SDS011;26708;50.304;19.028;2022-07-23T10:07:22;7.55;;;5.10;;
40981;SDS011;26708;50.304;19.028;2022-07-23T10:10:46;7.30;;;4.88;;
40981;SDS011;26708;50.304;19.028;2022-07-23T10:14:16;7.63;;;4.50;;
40981;SDS011;26708;50.304;19.028;2022-07-23T10:17:29;10.50;;;4.95;;
40981;SDS011;26708;50.304;19.028;2022-07-23T10:20:31;5.97;;;5.05;;
40981;SDS011;26708;50.304;19.028;2022-07-23T10:23:42;6.55;;;4.85;;
40981;SDS011;26708;50.304;19.028;2022-07-23T10:30:12;6.63;;;5.00;;
40981;SDS011;26708;50.304;19.028;2022-07-23T10:33:41;11.10;;;4.77;;
40981;SDS011;26708;50.304;19.028;2022-07-23T10:40:20;7.82;;;5.03;;
40981;SDS011;26708;50.304;19.028;2022-07-23T10:43:24;6.57;;;4.47;;
40981;SDS011;26708;50.304;19.028;2022-07-23T10:46:25;9.93;;;5.38;;
40981;SDS011;26708;50.304;19.028;2022-07-23T10:49:46;7.25;;;4.75;;
40981;SDS011;26708;50.304;19.028;2022-07-23T10:56:09;9.85;;;4.90;;
40981;SDS011;26708;50.304;19.028;2022-07-23T10:59:14;6.15;;;4.32;;
40981;SDS011;26708;50.304;19.028;2022-07-23T11:02:20;6.32;;;4.80;;
40981;SDS011;26708;50.304;19.028;2022-07-23T11:05:27;9.35;;;4.38;;
40981;SDS011;26708;50.304;19.028;2022-07-23T11:08:41;9.25;;;4.78;;
40981;SDS011;26708;50.304;19.028;2022-07-23T11:11:42;10.50;;;4.13;;
40981;SDS011;26708;50.304;19.028;2022-07-23T11:15:05;6.25;;;4.60;;
40981;SDS011;26708;50.304;19.028;2022-07-23T11:18:07;8.15;;;4.78;;
40981;SDS011;26708;50.304;19.028;2022-07-23T11:24:24;7.32;;;4.55;;
40981;SDS011;26708;50.304;19.028;2022-07-23T11:27:36;7.90;;;4.43;;
40981;SDS011;26708;50.304;19.028;2022-07-23T11:30:41;9.35;;;4.70;;
40981;SDS011;26708;50.304;19.028;2022-07-23T11:33:43;5.90;;;4.68;;
40981;SDS011;26708;50.304;19.028;2022-07-23T11:36:48;5.28;;;4.75;;
40981;SDS011;26708;50.304;19.028;2022-07-23T11:39:55;7.05;;;4.63;;
40981;SDS011;26708;50.304;19.028;2022-07-23T11:43:06;5.93;;;4.43;;
40981;SDS011;26708;50.304;19.028;2022-07-23T11:46:09;9.27;;;4.82;;
40981;SDS011;26708;50.304;19.028;2022-07-23T11:49:10;6.38;;;5.00;;
40981;SDS011;26708;50.304;19.028;2022-07-23T11:52:14;6.63;;;5.05;;
40981;SDS011;26708;50.304;19.028;2022-07-23T11:55:15;7.65;;;4.70;;
40981;SDS011;26708;50.304;19.028;2022-07-23T11:58:17;7.88;;;4.63;;
40981;SDS011;26708;50.304;19.028;2022-07-23T12:01:18;9.68;;;4.70;;
40981;SDS011;26708;50.304;19.028;2022-07-23T12:04:19;7.47;;;4.75;;
40981;SDS011;26708;50.304;19.028;2022-07-23T12:10:33;7.15;;;5.07;;
40981;SDS011;26708;50.304;19.028;2022-07-23T12:13:35;12.02;;;4.68;;
40981;SDS011;26708;50.304;19.028;2022-07-23T12:16:36;9.00;;;5.20;;
40981;SDS011;26708;50.304;19.028;2022-07-23T12:19:37;6.38;;;5.10;;
40981;SDS011;26708;50.304;19.028;2022-07-23T12:22:40;7.25;;;4.90;;
40981;SDS011;26708;50.304;19.028;2022-07-23T12:25:43;6.13;;;4.68;;
40981;SDS011;26708;50.304;19.028;2022-07-23T12:28:51;8.77;;;4.63;;
40981;SDS011;26708;50.304;19.028;2022-07-23T12:31:52;8.40;;;5.03;;
40981;SDS011;26708;50.304;19.028;2022-07-23T12:35:06;7.05;;;4.95;;
40981;SDS011;26708;50.304;19.028;2022-07-23T12:41:10;4.85;;;4.30;;
40981;SDS011;26708;50.304;19.028;2022-07-23T12:44:14;8.45;;;5.00;;
40981;SDS011;26708;50.304;19.028;2022-07-23T12:47:15;6.88;;;4.82;;
40981;SDS011;26708;50.304;19.028;2022-07-23T12:50:39;6.65;;;4.35;;
40981;SDS011;26708;50.304;19.028;2022-07-23T12:53:49;6.55;;;4.55;;
40981;SDS011;26708;50.304;19.028;2022-07-23T12:56:55;8.07;;;4.68;;
40981;SDS011;26708;50.304;19.028;2022-07-23T13:00:07;6.38;;;4.82;;
40981;SDS011;26708;50.304;19.028;2022-07-23T13:03:19;6.63;;;4.97;;
40981;SDS011;26708;50.304;19.028;2022-07-23T13:06:29;6.15;;;4.93;;
40981;SDS011;26708;50.304;19.028;2022-07-23T13:12:34;7.18;;;5.10;;
40981;SDS011;26708;50.304;19.028;2022-07-23T13:15:34;8.18;;;5.55;;
40981;SDS011;26708;50.304;19.028;2022-07-23T13:18:35;11.43;;;5.60;;
40981;SDS011;26708;50.304;19.028;2022-07-23T13:21:36;10.38;;;5.68;;
40981;SDS011;26708;50.304;19.028;2022-07-23T13:24:37;6.68;;;5.13;;
40981;SDS011;26708;50.304;19.028;2022-07-23T13:27:38;11.18;;;5.50;;
40981;SDS011;26708;50.304;19.028;2022-07-23T13:30:40;12.65;;;5.70;;
40981;SDS011;26708;50.304;19.028;2022-07-23T13:33:41;6.07;;;5.47;;
40981;SDS011;26708;50.304;19.028;2022-07-23T13:36:42;8.98;;;5.65;;
40981;SDS011;26708;50.304;19.028;2022-07-23T13:39:43;10.63;;;6.00;;
40981;SDS011;26708;50.304;19.028;2022-07-23T13:42:44;6.97;;;5.30;;
40981;SDS011;26708;50.304;19.028;2022-07-23T13:45:45;12.73;;;5.78;;
40981;SDS011;26708;50.304;19.028;2022-07-23T13:48:46;13.32;;;6.25;;
40981;SDS011;26708;50.304;19.028;2022-07-23T13:51:46;10.60;;;5.55;;
40981;SDS011;26708;50.304;19.028;2022-07-23T13:54:47;9.40;;;5.07;;
40981;SDS011;26708;50.304;19.028;2022-07-23T13:57:48;8.65;;;5.43;;
40981;SDS011;26708;50.304;19.028;2022-07-23T14:00:50;10.45;;;5.35;;
40981;SDS011;26708;50.304;19.028;2022-07-23T14:03:52;8.83;;;4.73;;
40981;SDS011;26708;50.304;19.028;2022-07-23T14:06:53;9.40;;;5.18;;
40981;SDS011;26708;50.304;19.028;2022-07-23T14:09:54;6.05;;;5.07;;
40981;SDS011;26708;50.304;19.028;2022-07-23T14:12:55;24.67;;;5.82;;
40981;SDS011;26708;50.304;19.028;2022-07-23T14:15:58;28.77;;;5.88;;
40981;SDS011;26708;50.304;19.028;2022-07-23T14:18:59;35.00;;;5.93;;
40981;SDS011;26708;50.304;19.028;2022-07-23T14:22:00;21.15;;;5.22;;
40981;SDS011;26708;50.304;19.028;2022-07-23T14:25:01;12.07;;;5.22;;
40981;SDS011;26708;50.304;19.028;2022-07-23T14:28:03;12.80;;;5.22;;
40981;SDS011;26708;50.304;19.028;2022-07-23T14:31:04;16.42;;;5.50;;
40981;SDS011;26708;50.304;19.028;2022-07-23T14:34:05;10.13;;;5.55;;
40981;SDS011;26708;50.304;19.028;2022-07-23T14:37:06;12.68;;;5.47;;
40981;SDS011;26708;50.304;19.028;2022-07-23T14:40:07;17.15;;;6.18;;
40981;SDS011;26708;50.304;19.028;2022-07-23T14:43:08;12.82;;;5.82;;
40981;SDS011;26708;50.304;19.028;2022-07-23T14:46:09;12.80;;;5.70;;
40981;SDS011;26708;50.304;19.028;2022-07-23T14:49:11;11.43;;;5.65;;
40981;SDS011;26708;50.304;19.028;2022-07-23T14:52:11;7.25;;;4.80;;
40981;SDS011;26708;50.304;19.028;2022-07-23T14:55:13;9.23;;;5.20;;
40981;SDS011;26708;50.304;19.028;2022-07-23T14:58:13;7.57;;;5.30;;
40981;SDS011;26708;50.304;19.028;2022-07-23T15:01:15;8.05;;;5.40;;
40981;SDS011;26708;50.304;19.028;2022-07-23T15:04:16;10.10;;;5.70;;
40981;SDS011;26708;50.304;19.028;2022-07-23T15:07:17;9.20;;;5.82;;
40981;SDS011;26708;50.304;19.028;2022-07-23T15:10:18;11.40;;;5.95;;
40981;SDS011;26708;50.304;19.028;2022-07-23T15:13:19;10.60;;;5.43;;
40981;SDS011;26708;50.304;19.028;2022-07-23T15:16:20;7.57;;;5.93;;
40981;SDS011;26708;50.304;19.028;2022-07-23T15:19:21;9.73;;;5.60;;
40981;SDS011;26708;50.304;19.028;2022-07-23T15:22:22;10.32;;;6.25;;
40981;SDS011;26708;50.304;19.028;2022-07-23T15:25:23;12.77;;;6.10;;
40981;SDS011;26708;50.304;19.028;2022-07-23T15:28:24;9.68;;;6.00;;
40981;SDS011;26708;50.304;19.028;2022-07-23T15:31:25;9.80;;;6.03;;
40981;SDS011;26708;50.304;19.028;2022-07-23T15:34:26;11.23;;;6.57;;
40981;SDS011;26708;50.304;19.028;2022-07-23T15:37:27;11.95;;;6.47;;
40981;SDS011;26708;50.304;19.028;2022-07-23T15:40:28;8.38;;;6.40;;
40981;SDS011;26708;50.304;19.028;2022-07-23T15:43:29;9.32;;;6.50;;
40981;SDS011;26708;50.304;19.028;2022-07-23T15:46:30;10.48;;;5.72;;
40981;SDS011;26708;50.304;19.028;2022-07-23T15:49:31;8.30;;;5.93;;
40981;SDS011;26708;50.304;19.028;2022-07-23T15:52:31;8.80;;;6.28;;
40981;SDS011;26708;50.304;19.028;2022-07-23T15:55:32;9.85;;;6.70;;
40981;SDS011;26708;50.304;19.028;2022-07-23T15:58:33;13.07;;;6.13;;
40981;SDS011;26708;50.304;19.028;2022-07-23T16:01:34;9.98;;;6.07;;
40981;SDS011;26708;50.304;19.028;2022-07-23T16:04:35;9.50;;;6.43;;
40981;SDS011;26708;50.304;19.028;2022-07-23T16:07:36;9.25;;;6.10;;
40981;SDS011;26708;50.304;19.028;2022-07-23T16:10:37;8.38;;;6.15;;
40981;SDS011;26708;50.304;19.028;2022-07-23T16:13:38;8.90;;;6.20;;
40981;SDS011;26708;50.304;19.028;2022-07-23T16:16:40;8.32;;;6.35;;
40981;SDS011;26708;50.304;19.028;2022-07-23T16:19:41;14.98;;;6.10;;
40981;SDS011;26708;50.304;19.028;2022-07-23T16:22:42;9.63;;;5.82;;
40981;SDS011;26708;50.304;19.028;2022-07-23T16:25:45;11.85;;;6.20;;
40981;SDS011;26708;50.304;19.028;2022-07-23T16:28:47;7.00;;;6.10;;
40981;SDS011;26708;50.304;19.028;2022-07-23T16:31:48;11.63;;;5.95;;
40981;SDS011;26708;50.304;19.028;2022-07-23T16:34:49;9.57;;;5.25;;
40981;SDS011;26708;50.304;19.028;2022-07-23T16:37:50;9.93;;;6.10;;
40981;SDS011;26708;50.304;19.028;2022-07-23T16:40:51;11.70;;;6.05;;
40981;SDS011;26708;50.304;19.028;2022-07-23T16:43:52;11.68;;;6.00;;
40981;SDS011;26708;50.304;19.028;2022-07-23T16:46:52;10.00;;;6.75;;
40981;SDS011;26708;50.304;19.028;2022-07-23T16:49:53;10.95;;;6.10;;
40981;SDS011;26708;50.304;19.028;2022-07-23T16:52:54;9.48;;;6.45;;
40981;SDS011;26708;50.304;19.028;2022-07-23T16:55:55;10.45;;;5.95;;
40981;SDS011;26708;50.304;19.028;2022-07-23T16:58:55;9.30;;;5.95;;
40981;SDS011;26708;50.304;19.028;2022-07-23T17:01:56;12.98;;;6.03;;
40981;SDS011;26708;50.304;19.028;2022-07-23T17:04:57;9.55;;;5.82;;
40981;SDS011;26708;50.304;19.028;2022-07-23T17:07:57;9.38;;;6.32;;
40981;SDS011;26708;50.304;19.028;2022-07-23T17:10:59;9.82;;;5.65;;
40981;SDS011;26708;50.304;19.028;2022-07-23T17:14:00;12.10;;;5.80;;
40981;SDS011;26708;50.304;19.028;2022-07-23T17:17:00;10.15;;;6.28;;
40981;SDS011;26708;50.304;19.028;2022-07-23T17:20:02;9.00;;;5.85;;
40981;SDS011;26708;50.304;19.028;2022-07-23T17:23:04;8.52;;;6.40;;
40981;SDS011;26708;50.304;19.028;2022-07-23T17:26:05;11.00;;;6.03;;
40981;SDS011;26708;50.304;19.028;2022-07-23T17:29:05;9.05;;;6.40;;
40981;SDS011;26708;50.304;19.028;2022-07-23T17:32:06;7.57;;;5.97;;
40981;SDS011;26708;50.304;19.028;2022-07-23T17:35:07;11.35;;;6.28;;
40981;SDS011;26708;50.304;19.028;2022-07-23T17:38:09;8.32;;;6.80;;
40981;SDS011;26708;50.304;19.028;2022-07-23T17:41:10;13.85;;;6.75;;
40981;SDS011;26708;50.304;19.028;2022-07-23T17:44:11;10.05;;;6.82;;
40981;SDS011;26708;50.304;19.028;2022-07-23T17:47:11;10.68;;;6.70;;
40981;SDS011;26708;50.304;19.028;2022-07-23T17:50:12;9.70;;;6.15;;
40981;SDS011;26708;50.304;19.028;2022-07-23T17:53:14;10.20;;;6.55;;
40981;SDS011;26708;50.304;19.028;2022-07-23T17:56:15;13.18;;;7.10;;
40981;SDS011;26708;50.304;19.028;2022-07-23T17:59:15;12.07;;;6.57;;
40981;SDS011;26708;50.304;19.028;2022-07-23T18:02:16;11.15;;;6.32;;
40981;SDS011;26708;50.304;19.028;2022-07-23T18:05:17;14.02;;;7.07;;
40981;SDS011;26708;50.304;19.028;2022-07-23T18:08:18;8.77;;;6.70;;
40981;SDS011;26708;50.304;19.028;2022-07-23T18:11:19;9.55;;;6.70;;
40981;SDS011;26708;50.304;19.028;2022-07-23T18:14:20;10.52;;;6.07;;